createdAt,value
2017-11-14T00:02:14.875Z,-2.30
2017-11-14T00:04:48.499Z,-2.30
2017-11-14T00:07:17.532Z,-2.30
2017-11-14T00:09:46.343Z,-2.30
2017-11-14T00:12:14.371Z,-2.30
2017-11-14T00:14:48.776Z,-2.40
2017-11-14T00:17:19.828Z,-2.40
2017-11-14T00:19:48.843Z,-2.50
2017-11-14T00:22:18.619Z,-2.60
2017-11-14T00:24:47.564Z,-2.60
2017-11-14T00:27:23.082Z,-2.60
2017-11-14T00:29:51.880Z,-2.60
2017-11-14T00:32:24.876Z,-2.60
2017-11-14T00:34:52.896Z,-2.60
2017-11-14T00:37:21.919Z,-2.60
2017-11-14T00:39:50.737Z,-2.50
2017-11-14T00:42:18.755Z,-2.50
2017-11-14T00:44:48.808Z,-2.50
2017-11-14T00:47:19.534Z,-2.50
2017-11-14T00:49:48.323Z,-2.40
2017-11-14T00:52:17.132Z,-2.30
2017-11-14T00:54:46.109Z,-2.30
2017-11-14T00:57:14.911Z,-2.20
2017-11-14T00:59:42.951Z,-2.20
2017-11-14T01:02:11.808Z,-2.00
2017-11-14T01:04:41.571Z,-1.90
2017-11-14T01:07:09.639Z,-2.00
2017-11-14T01:09:40.347Z,-1.90
2017-11-14T01:12:08.391Z,-1.90
2017-11-14T01:14:36.423Z,-1.80
2017-11-14T01:17:04.466Z,-1.80
2017-11-14T01:19:34.402Z,-1.80
2017-11-14T01:22:03.343Z,-1.80
2017-11-14T01:24:31.403Z,-1.80
2017-11-14T01:26:59.464Z,-1.80
2017-11-14T01:29:28.502Z,-1.90
2017-11-14T01:31:56.545Z,-1.90
2017-11-14T01:34:25.367Z,-2.00
2017-11-14T01:36:57.327Z,-2.00
2017-11-14T01:39:29.463Z,-2.00
2017-11-14T01:41:58.523Z,-2.00
2017-11-14T01:44:28.490Z,-2.00
2017-11-14T01:47:01.918Z,-2.00
2017-11-14T01:49:29.950Z,-2.00
2017-11-14T01:52:00.014Z,-2.00
2017-11-14T01:54:28.825Z,-2.10
2017-11-14T01:56:56.883Z,-2.10
2017-11-14T01:59:24.950Z,-2.20
2017-11-14T02:01:53.023Z,-2.20
2017-11-14T02:04:24.642Z,-2.30
2017-11-14T02:07:00.170Z,-2.20
2017-11-14T02:09:29.154Z,-2.20
2017-11-14T02:11:57.181Z,-2.20
2017-11-14T02:14:27.170Z,-2.20
2017-11-14T02:16:56.858Z,-2.10
2017-11-14T02:19:25.801Z,-2.10
2017-11-14T02:21:53.822Z,-2.10
2017-11-14T02:24:22.633Z,-2.20
2017-11-14T02:26:56.449Z,-2.30
2017-11-14T02:29:24.482Z,-2.30
2017-11-14T02:31:52.509Z,-2.30
2017-11-14T02:34:22.465Z,-2.30
2017-11-14T02:36:50.497Z,-2.30
2017-11-14T02:39:18.537Z,-2.20
2017-11-14T02:41:46.594Z,-2.10
2017-11-14T02:44:15.398Z,-2.20
2017-11-14T02:46:43.462Z,-2.20
2017-11-14T02:49:17.329Z,-2.20
2017-11-14T02:51:48.599Z,-2.30
2017-11-14T02:54:17.410Z,-2.50
2017-11-14T02:56:45.466Z,-2.50
2017-11-14T02:59:14.268Z,-2.70
2017-11-14T03:01:42.346Z,-2.70
2017-11-14T03:04:16.146Z,-2.80
2017-11-14T03:06:47.391Z,-2.80
2017-11-14T03:09:17.079Z,-2.80
2017-11-14T03:11:45.878Z,-2.80
2017-11-14T03:14:13.950Z,-2.90
2017-11-14T03:16:42.758Z,-2.70
2017-11-14T03:19:12.614Z,-2.80
2017-11-14T03:21:40.653Z,-2.80
2017-11-14T03:24:08.686Z,-2.90
2017-11-14T03:26:37.634Z,-3.00
2017-11-14T03:29:06.657Z,-3.00
2017-11-14T03:31:35.459Z,-3.10
2017-11-14T03:34:03.517Z,-3.10
2017-11-14T03:36:32.326Z,-3.10
2017-11-14T03:39:01.134Z,-3.00
2017-11-14T03:41:29.170Z,-3.00
2017-11-14T03:43:57.975Z,-3.20
2017-11-14T03:46:26.002Z,-3.20
2017-11-14T03:48:54.033Z,-3.30
2017-11-14T03:51:25.173Z,-3.50
2017-11-14T03:53:53.202Z,-3.50
2017-11-14T03:56:22.005Z,-3.50
2017-11-14T03:58:51.973Z,-3.50
2017-11-14T04:01:20.021Z,-3.50
2017-11-14T04:03:53.689Z,-3.50
2017-11-14T04:06:22.509Z,-3.60
2017-11-14T04:08:50.544Z,-3.60
2017-11-14T04:11:19.365Z,-3.60
2017-11-14T04:13:47.413Z,-3.60
2017-11-14T04:16:16.381Z,-3.40
2017-11-14T04:18:44.434Z,-3.30
2017-11-14T04:21:20.694Z,-3.20
2017-11-14T04:23:48.758Z,-3.10
2017-11-14T04:26:19.866Z,-3.10
2017-11-14T04:28:47.897Z,-3.10
2017-11-14T04:31:18.609Z,-3.20
2017-11-14T04:33:46.636Z,-3.20
2017-11-14T04:36:18.370Z,-3.20
2017-11-14T04:38:46.425Z,-3.20
2017-11-14T04:41:15.361Z,-3.20
2017-11-14T04:43:43.401Z,-3.10
2017-11-14T04:46:19.710Z,-3.10
2017-11-14T04:48:47.777Z,-3.00
2017-11-14T04:51:15.809Z,-2.90
2017-11-14T04:53:43.857Z,-2.90
2017-11-14T04:56:12.688Z,-2.90
2017-11-14T04:58:40.724Z,-2.90
2017-11-14T05:01:10.517Z,-2.90
2017-11-14T05:03:39.456Z,-2.90
2017-11-14T05:06:14.541Z,-3.00
2017-11-14T05:08:50.294Z,-3.10
2017-11-14T05:11:19.297Z,-3.20
2017-11-14T05:13:48.123Z,-3.10
2017-11-14T05:16:16.217Z,-3.10
2017-11-14T05:18:44.273Z,-3.00
2017-11-14T05:21:12.303Z,-2.90
2017-11-14T05:23:42.026Z,-2.90
2017-11-14T05:26:16.785Z,-3.00
2017-11-14T05:28:51.669Z,-2.90
2017-11-14T05:31:20.469Z,-2.70
2017-11-14T05:33:48.517Z,-2.70
2017-11-14T05:36:16.561Z,-2.70
2017-11-14T05:38:45.370Z,-2.70
2017-11-14T05:41:17.030Z,-2.70
2017-11-14T05:43:47.741Z,-2.70
2017-11-14T05:46:15.786Z,-2.70
2017-11-14T05:48:47.180Z,-2.70
2017-11-14T05:51:15.988Z,-2.70
2017-11-14T05:53:44.931Z,-2.70
2017-11-14T05:56:12.965Z,-2.70
2017-11-14T05:58:41.000Z,-2.60
2017-11-14T06:01:09.022Z,-2.60
2017-11-14T06:03:37.077Z,-2.60
2017-11-14T06:06:05.102Z,-2.50
2017-11-14T06:08:41.333Z,-2.40
2017-11-14T06:11:11.376Z,-2.30
2017-11-14T06:13:41.321Z,-2.20
2017-11-14T06:16:17.212Z,-2.10
2017-11-14T06:18:45.273Z,-2.10
2017-11-14T06:21:13.305Z,-2.00
2017-11-14T06:23:42.113Z,-2.00
2017-11-14T06:26:10.181Z,-2.00
2017-11-14T06:28:38.205Z,-2.00
2017-11-14T06:31:14.063Z,-2.00
2017-11-14T06:33:42.124Z,-1.90
2017-11-14T06:36:11.125Z,-1.90
2017-11-14T06:38:43.769Z,-2.00
2017-11-14T06:41:11.800Z,-2.00
2017-11-14T06:43:42.518Z,-1.90
2017-11-14T06:46:10.577Z,-2.00
2017-11-14T06:48:38.604Z,-1.90
2017-11-14T06:51:11.543Z,-1.90
2017-11-14T06:53:40.392Z,-1.80
2017-11-14T06:56:15.716Z,-1.80
2017-11-14T06:58:43.768Z,-1.90
2017-11-14T07:01:11.818Z,-1.90
2017-11-14T07:03:41.901Z,-1.90
2017-11-14T07:06:10.809Z,-1.80
2017-11-14T07:08:42.545Z,-1.80
2017-11-14T07:11:10.584Z,-1.80
2017-11-14T07:13:38.616Z,-1.70
2017-11-14T07:16:11.069Z,-1.60
2017-11-14T07:18:41.845Z,-1.50
2017-11-14T07:21:09.920Z,-1.50
2017-11-14T07:23:43.715Z,-1.50
2017-11-14T07:26:15.668Z,-1.40
2017-11-14T07:28:45.472Z,-1.40
2017-11-14T07:31:18.400Z,-1.40
2017-11-14T07:33:47.432Z,-1.40
2017-11-14T07:36:15.452Z,-1.40
2017-11-14T07:38:43.476Z,-1.50
2017-11-14T07:41:12.413Z,-1.50
2017-11-14T07:43:42.368Z,-1.40
2017-11-14T07:46:10.392Z,-1.30
2017-11-14T07:48:38.428Z,-1.30
2017-11-14T07:51:10.263Z,-1.20
2017-11-14T07:53:38.300Z,-1.30
2017-11-14T07:56:11.096Z,-1.50
2017-11-14T07:58:39.143Z,-1.40
2017-11-14T08:01:07.163Z,-1.20
2017-11-14T08:03:39.744Z,-0.80
2017-11-14T08:06:08.719Z,-0.50
2017-11-14T08:08:37.508Z,0.50
2017-11-14T08:11:06.516Z,0.40
2017-11-14T08:13:34.528Z,1.40
2017-11-14T08:16:08.124Z,2.00
2017-11-14T08:18:36.144Z,2.60
2017-11-14T08:21:04.164Z,3.20
2017-11-14T08:23:32.217Z,3.80
2017-11-14T08:26:01.000Z,3.40
2017-11-14T08:28:42.084Z,2.50
2017-11-14T08:31:10.863Z,1.90
2017-11-14T08:33:39.657Z,1.90
2017-11-14T08:36:08.452Z,1.80
2017-11-14T08:38:36.475Z,1.80
2017-11-14T08:41:04.503Z,1.80
2017-11-14T08:43:32.548Z,1.80
2017-11-14T08:46:05.231Z,2.10
2017-11-14T08:48:34.038Z,2.60
2017-11-14T08:51:21.163Z,2.60
2017-11-14T08:53:49.223Z,3.70
2017-11-14T08:56:25.464Z,6.10
2017-11-14T08:59:00.691Z,8.10
2017-11-14T09:01:28.724Z,9.60
2017-11-14T09:03:57.736Z,10.00
2017-11-14T09:06:25.776Z,9.70
2017-11-14T09:08:53.788Z,8.80
2017-11-14T09:11:23.792Z,8.90
2017-11-14T09:13:52.708Z,8.10
2017-11-14T09:16:21.496Z,6.70
2017-11-14T09:18:53.759Z,6.70
2017-11-14T09:21:26.578Z,6.10
2017-11-14T09:23:54.607Z,6.00
2017-11-14T09:26:22.644Z,5.20
2017-11-14T09:28:50.671Z,4.50
2017-11-14T09:31:27.031Z,4.80
2017-11-14T09:33:55.806Z,6.30
2017-11-14T09:36:24.588Z,7.30
2017-11-14T09:38:52.645Z,7.30
2017-11-14T09:41:20.664Z,8.60
2017-11-14T09:43:48.704Z,10.00
2017-11-14T09:46:18.503Z,12.20
2017-11-14T09:48:48.201Z,12.70
2017-11-14T09:51:16.246Z,12.60
2017-11-14T09:53:44.280Z,12.90
2017-11-14T09:56:13.235Z,12.40
2017-11-14T09:58:43.164Z,12.20
2017-11-14T10:01:15.035Z,12.60
2017-11-14T10:03:43.851Z,13.00
2017-11-14T10:06:12.651Z,14.20
2017-11-14T10:08:40.679Z,14.20
2017-11-14T10:11:09.467Z,14.80
2017-11-14T10:13:38.257Z,14.50
2017-11-14T10:16:09.070Z,15.00
2017-11-14T10:18:38.046Z,14.90
2017-11-14T10:21:07.039Z,15.00
2017-11-14T10:23:35.082Z,16.20
2017-11-14T10:26:05.023Z,16.80
2017-11-14T10:28:34.018Z,16.50
2017-11-14T10:31:03.035Z,16.60
2017-11-14T10:33:31.826Z,18.60
2017-11-14T10:36:03.939Z,19.20
2017-11-14T10:38:32.727Z,19.80
2017-11-14T10:41:00.751Z,19.70
2017-11-14T10:43:30.542Z,22.10
2017-11-14T10:46:01.879Z,22.00
2017-11-14T10:48:29.915Z,22.80
2017-11-14T10:50:57.934Z,22.90
2017-11-14T10:53:25.946Z,21.70
2017-11-14T10:55:55.754Z,21.50
2017-11-14T10:58:24.701Z,21.70
2017-11-14T11:00:53.686Z,21.30
2017-11-14T11:03:26.262Z,22.30
2017-11-14T11:05:55.174Z,23.30
2017-11-14T11:08:25.878Z,24.50
2017-11-14T11:10:53.902Z,24.40
2017-11-14T11:13:21.934Z,24.40
2017-11-14T11:15:53.274Z,23.90
2017-11-14T11:18:21.292Z,23.40
2017-11-14T11:20:49.314Z,23.20
2017-11-14T11:23:17.346Z,22.50
2017-11-14T11:25:47.291Z,22.60
2017-11-14T11:28:15.312Z,23.70
2017-11-14T11:30:43.366Z,24.10
2017-11-14T11:33:12.150Z,22.80
2017-11-14T11:35:41.842Z,19.80
2017-11-14T11:38:14.554Z,16.60
2017-11-14T11:40:43.506Z,16.50
2017-11-14T11:43:12.526Z,14.80
2017-11-14T11:45:43.215Z,14.50
2017-11-14T11:48:16.943Z,14.40
2017-11-14T11:50:44.974Z,13.70
2017-11-14T11:53:13.990Z,16.50
2017-11-14T11:55:43.906Z,18.80
2017-11-14T11:58:11.960Z,17.40
2017-11-14T12:00:43.450Z,14.50
2017-11-14T12:03:14.174Z,16.30
2017-11-14T12:05:44.182Z,16.30
2017-11-14T12:08:16.430Z,20.20
2017-11-14T12:10:44.458Z,20.10
2017-11-14T12:13:22.365Z,20.60
2017-11-14T12:15:54.278Z,20.10
2017-11-14T12:18:23.522Z,21.00
2017-11-14T12:20:52.294Z,21.70
2017-11-14T12:23:25.670Z,20.90
2017-11-14T12:25:54.654Z,20.80
2017-11-14T12:28:22.685Z,17.30
2017-11-14T12:30:53.666Z,13.90
2017-11-14T12:33:21.694Z,11.90
2017-11-14T12:35:50.726Z,11.90
2017-11-14T12:38:19.647Z,14.70
2017-11-14T12:40:52.459Z,18.50
2017-11-14T12:43:21.398Z,18.50
2017-11-14T12:45:49.414Z,20.30
2017-11-14T12:48:17.437Z,21.80
2017-11-14T12:50:45.465Z,22.10
2017-11-14T12:53:17.449Z,21.60
2017-11-14T12:55:47.025Z,21.30
2017-11-14T12:58:19.338Z,20.00
2017-11-14T13:00:51.074Z,19.90
2017-11-14T13:03:23.061Z,20.10
2017-11-14T13:05:53.589Z,19.20
2017-11-14T13:08:21.621Z,16.40
2017-11-14T13:10:49.642Z,14.00
2017-11-14T13:13:17.677Z,13.10
2017-11-14T13:15:45.689Z,15.50
2017-11-14T13:18:13.712Z,17.50
2017-11-14T13:20:43.657Z,19.60
2017-11-14T13:23:25.273Z,18.20
2017-11-14T13:25:55.979Z,13.10
2017-11-14T13:28:24.898Z,13.00
2017-11-14T13:30:53.850Z,11.60
2017-11-14T13:33:22.782Z,10.60
2017-11-14T13:35:51.705Z,10.10
2017-11-14T13:38:25.033Z,9.30
2017-11-14T13:41:04.329Z,8.60
2017-11-14T13:43:36.386Z,7.90
2017-11-14T13:46:04.401Z,7.40
2017-11-14T13:48:38.002Z,7.10
2017-11-14T13:51:08.941Z,7.00
2017-11-14T13:53:37.930Z,7.00
2017-11-14T13:56:05.938Z,6.90
2017-11-14T13:58:37.403Z,6.80
2017-11-14T14:01:06.340Z,6.50
2017-11-14T14:03:34.353Z,6.20
2017-11-14T14:06:02.377Z,6.10
2017-11-14T14:08:30.401Z,5.90
2017-11-14T14:11:03.389Z,5.80
2017-11-14T14:13:33.365Z,6.40
2017-11-14T14:16:02.153Z,8.90
2017-11-14T14:18:31.129Z,8.80
2017-11-14T14:21:00.116Z,9.00
2017-11-14T14:23:28.133Z,8.30
2017-11-14T14:25:56.161Z,9.00
2017-11-14T14:28:24.196Z,9.60
2017-11-14T14:30:52.217Z,9.30
2017-11-14T14:33:20.997Z,7.80
2017-11-14T14:35:49.981Z,7.70
2017-11-14T14:38:17.993Z,7.40
2017-11-14T14:40:46.945Z,8.20
2017-11-14T14:43:14.977Z,9.60
2017-11-14T14:45:43.176Z,11.00
2017-11-14T14:48:11.197Z,12.20
2017-11-14T14:50:40.164Z,13.00
2017-11-14T14:53:12.618Z,10.60
2017-11-14T14:55:44.380Z,10.50
2017-11-14T14:58:12.400Z,9.20
2017-11-14T15:00:42.349Z,8.20
2017-11-14T15:03:11.294Z,7.20
2017-11-14T15:05:40.220Z,6.50
2017-11-14T15:08:08.236Z,5.80
2017-11-14T15:10:40.792Z,5.30
2017-11-14T15:13:11.815Z,5.30
2017-11-14T15:15:40.744Z,5.30
2017-11-14T15:18:09.529Z,4.90
2017-11-14T15:20:38.328Z,4.70
2017-11-14T15:23:07.305Z,4.70
2017-11-14T15:25:37.085Z,4.30
2017-11-14T15:28:07.728Z,4.20
2017-11-14T15:30:35.748Z,4.20
2017-11-14T15:33:03.769Z,4.20
2017-11-14T15:35:31.805Z,4.10
2017-11-14T15:37:59.831Z,4.00
2017-11-14T15:40:27.856Z,3.90
2017-11-14T15:42:55.888Z,3.70
2017-11-14T15:45:23.912Z,3.50
2017-11-14T15:47:53.936Z,3.30
2017-11-14T15:50:23.852Z,3.10
2017-11-14T15:52:52.820Z,2.90
2017-11-14T15:55:20.837Z,2.70
2017-11-14T15:57:55.717Z,2.30
2017-11-14T16:00:27.997Z,2.30
2017-11-14T16:02:57.016Z,2.10
2017-11-14T16:05:26.916Z,2.00
2017-11-14T16:07:58.582Z,2.00
2017-11-14T16:10:28.377Z,2.00
2017-11-14T16:12:56.411Z,2.00
2017-11-14T16:15:25.429Z,2.00
2017-11-14T16:17:53.441Z,1.90
2017-11-14T16:20:35.972Z,1.70
2017-11-14T16:23:03.984Z,1.60
2017-11-14T16:25:37.336Z,1.40
2017-11-14T16:28:06.260Z,1.40
2017-11-14T16:30:34.284Z,1.50
2017-11-14T16:33:04.216Z,1.60
2017-11-14T16:35:33.136Z,1.60
2017-11-14T16:38:01.153Z,1.60
2017-11-14T16:40:31.136Z,1.50
2017-11-14T16:43:01.142Z,1.40
2017-11-14T16:45:33.620Z,1.30
2017-11-14T16:48:01.648Z,1.30
2017-11-14T16:50:31.592Z,1.30
2017-11-14T16:53:01.624Z,1.20
2017-11-14T16:55:41.336Z,1.10
2017-11-14T16:58:17.108Z,0.90
2017-11-14T17:00:45.128Z,0.80
2017-11-14T17:03:17.000Z,0.90
2017-11-14T17:05:45.029Z,1.10
2017-11-14T17:08:23.492Z,1.50
2017-11-14T17:10:53.440Z,1.40
2017-11-14T17:13:23.135Z,1.60
2017-11-14T17:15:52.052Z,1.70
2017-11-14T17:18:20.082Z,1.80
2017-11-14T17:20:53.655Z,1.80
2017-11-14T17:23:22.593Z,1.90
2017-11-14T17:25:55.340Z,1.90
2017-11-14T17:28:27.143Z,1.90
2017-11-14T17:30:55.172Z,1.90
2017-11-14T17:33:23.952Z,1.90
2017-11-14T17:35:55.648Z,1.90
2017-11-14T17:38:24.573Z,1.90
2017-11-14T17:40:52.603Z,2.00
2017-11-14T17:43:20.628Z,2.00
2017-11-14T17:45:50.559Z,2.00
2017-11-14T17:48:18.592Z,2.00
2017-11-14T17:50:47.387Z,2.00
2017-11-14T17:53:17.312Z,2.00
2017-11-14T17:55:45.335Z,2.00
2017-11-14T17:58:19.971Z,2.00
2017-11-14T18:00:55.400Z,1.90
2017-11-14T18:03:23.450Z,1.80
2017-11-14T18:05:55.439Z,1.80
2017-11-14T18:08:24.715Z,1.80
2017-11-14T18:10:52.743Z,1.70
2017-11-14T18:13:22.659Z,1.70
2017-11-14T18:15:54.823Z,1.70
2017-11-14T18:18:23.752Z,1.70
2017-11-14T18:20:53.694Z,1.70
2017-11-14T18:23:22.630Z,1.70
2017-11-14T18:25:50.658Z,1.60
2017-11-14T18:28:19.587Z,1.60
2017-11-14T18:30:47.627Z,1.60
2017-11-14T18:33:17.464Z,1.60
2017-11-14T18:35:45.451Z,1.60
2017-11-14T18:38:14.503Z,1.60
2017-11-14T18:40:46.227Z,1.60
2017-11-14T18:43:14.263Z,1.60
2017-11-14T18:45:42.334Z,1.60
2017-11-14T18:48:10.378Z,1.60
2017-11-14T18:50:41.734Z,1.50
2017-11-14T18:53:10.698Z,1.50
2017-11-14T18:55:38.744Z,1.50
2017-11-14T18:58:10.315Z,1.40
2017-11-14T19:00:43.090Z,1.40
2017-11-14T19:03:12.122Z,1.40
2017-11-14T19:05:41.835Z,1.40
2017-11-14T19:08:10.620Z,1.40
2017-11-14T19:10:39.427Z,1.40
2017-11-14T19:13:14.924Z,1.40
2017-11-14T19:15:44.954Z,1.40
2017-11-14T19:18:13.771Z,1.40
2017-11-14T19:20:42.811Z,1.40
2017-11-14T19:23:10.879Z,1.40
2017-11-14T19:25:39.895Z,1.40
2017-11-14T19:28:11.314Z,1.50
2017-11-14T19:30:39.354Z,1.50
2017-11-14T19:33:13.827Z,1.50
2017-11-14T19:35:43.850Z,1.50
2017-11-14T19:38:15.806Z,1.50
2017-11-14T19:40:44.739Z,1.50
2017-11-14T19:43:12.771Z,1.50
2017-11-14T19:45:42.787Z,1.50
2017-11-14T19:48:11.791Z,1.50
2017-11-14T19:50:42.410Z,1.50
2017-11-14T19:53:10.434Z,1.50
2017-11-14T19:55:38.474Z,1.50
2017-11-14T19:58:06.526Z,1.50
2017-11-14T20:00:38.855Z,1.60
2017-11-14T20:03:10.951Z,1.60
2017-11-14T20:05:38.987Z,1.50
2017-11-14T20:08:13.146Z,1.40
2017-11-14T20:10:43.874Z,1.40
2017-11-14T20:13:11.898Z,1.30
2017-11-14T20:15:39.938Z,1.30
2017-11-14T20:18:07.987Z,1.30
2017-11-14T20:20:36.039Z,1.30
2017-11-14T20:23:04.070Z,1.30
2017-11-14T20:25:33.063Z,1.30
2017-11-14T20:28:01.086Z,1.30
2017-11-14T20:30:33.022Z,1.30
2017-11-14T20:33:06.754Z,1.30
2017-11-14T20:35:36.562Z,1.10
2017-11-14T20:38:15.114Z,1.10
2017-11-14T20:40:44.206Z,1.10
2017-11-14T20:43:12.974Z,1.20
2017-11-14T20:45:41.910Z,1.10
2017-11-14T20:48:09.949Z,1.20
2017-11-14T20:50:38.894Z,1.10
2017-11-14T20:53:06.927Z,1.10
2017-11-14T20:55:36.886Z,1.10
2017-11-14T20:58:06.822Z,1.00
2017-11-14T21:00:36.522Z,0.90
2017-11-14T21:03:04.566Z,0.90
2017-11-14T21:05:33.582Z,0.90
2017-11-14T21:08:04.350Z,0.80
2017-11-14T21:10:34.286Z,0.80
2017-11-14T21:13:02.322Z,0.80
2017-11-14T21:15:30.389Z,0.70
2017-11-14T21:18:01.090Z,0.60
2017-11-14T21:20:30.085Z,0.60
2017-11-14T21:22:58.174Z,0.60
2017-11-14T21:25:26.190Z,0.50
2017-11-14T21:27:57.167Z,0.50
2017-11-14T21:30:28.805Z,0.40
2017-11-14T21:32:57.846Z,0.40
2017-11-14T21:35:30.390Z,0.30
2017-11-14T21:37:59.209Z,0.30
2017-11-14T21:40:28.161Z,0.30
2017-11-14T21:42:56.185Z,0.20
2017-11-14T21:45:24.993Z,0.10
2017-11-14T21:47:53.010Z,0.10
2017-11-14T21:50:23.001Z,0.10
2017-11-14T21:52:51.045Z,0.10
2017-11-14T21:55:23.156Z,0.10
2017-11-14T21:57:52.129Z,0.10
2017-11-14T22:00:22.154Z,0.10
2017-11-14T22:02:52.861Z,0.20
2017-11-14T22:05:20.898Z,0.20
2017-11-14T22:07:49.852Z,0.20
2017-11-14T22:10:17.928Z,0.20
2017-11-14T22:12:45.955Z,0.20
2017-11-14T22:15:13.982Z,0.20
2017-11-14T22:17:42.793Z,0.20
2017-11-14T22:20:18.046Z,0.20
2017-11-14T22:22:48.022Z,0.20
2017-11-14T22:25:16.813Z,0.20
2017-11-14T22:27:45.609Z,0.10
2017-11-14T22:30:13.681Z,0.10
2017-11-14T22:32:41.723Z,0.10
2017-11-14T22:35:09.753Z,0.10
2017-11-14T22:37:39.088Z,0.10
2017-11-14T22:40:09.061Z,0.10
2017-11-14T22:42:38.097Z,0.10
2017-11-14T22:45:11.682Z,0.10
2017-11-14T22:47:41.713Z,0.10
2017-11-14T22:50:14.513Z,0.10
2017-11-14T22:52:43.304Z,0.10
2017-11-14T22:55:12.277Z,0.10
2017-11-14T22:57:41.308Z,0.10
2017-11-14T23:00:10.273Z,0.20
2017-11-14T23:02:40.080Z,0.10
2017-11-14T23:05:08.165Z,0.10
2017-11-14T23:07:37.894Z,0.10
2017-11-14T23:10:07.877Z,0.10
2017-11-14T23:12:40.545Z,0.10
2017-11-14T23:15:09.577Z,0.00
2017-11-14T23:17:38.539Z,0.00
2017-11-14T23:20:06.577Z,0.00
2017-11-14T23:22:34.919Z,0.00
2017-11-14T23:25:02.941Z,-0.10
2017-11-14T23:27:37.572Z,-0.10
2017-11-14T23:30:05.617Z,-0.10
2017-11-14T23:32:33.669Z,-0.10
2017-11-14T23:35:07.616Z,-0.10
2017-11-14T23:37:35.641Z,-0.10
2017-11-14T23:40:04.709Z,-0.10
2017-11-14T23:42:34.513Z,-0.10
2017-11-14T23:45:02.593Z,-0.10
2017-11-14T23:47:31.407Z,-0.10
2017-11-14T23:50:00.506Z,-0.10
2017-11-14T23:52:28.544Z,-0.10
2017-11-14T23:54:57.336Z,-0.20
2017-11-14T23:57:25.376Z,-0.20
2017-11-14T23:59:53.445Z,-0.20
